sensor_id;sensor_type;location;lat;lon;timestamp;P1;durP1;ratioP1;P2;durP2;ratioP2
61702;SDS011;47622;47.726;3.298;2024-01-15T00:01:56;66.90;;;21.55;;
61702;SDS011;47622;47.726;3.298;2024-01-15T00:04:21;73.18;;;21.15;;
61702;SDS011;47622;47.726;3.298;2024-01-15T00:06:49;73.15;;;22.25;;
61702;SDS011;47622;47.726;3.298;2024-01-15T00:09:15;69.32;;;21.10;;
61702;SDS011;47622;47.726;3.298;2024-01-15T00:11:41;71.70;;;20.63;;
61702;SDS011;47622;47.726;3.298;2024-01-15T00:14:07;72.20;;;21.80;;
61702;SDS011;47622;47.726;3.298;2024-01-15T00:16:33;74.45;;;23.00;;
61702;SDS011;47622;47.726;3.298;2024-01-15T00:18:59;68.28;;;20.45;;
61702;SDS011;47622;47.726;3.298;2024-01-15T00:21:24;71.32;;;20.88;;
61702;SDS011;47622;47.726;3.298;2024-01-15T00:23:50;73.90;;;21.48;;
61702;SDS011;47622;47.726;3.298;2024-01-15T00:26:16;69.65;;;22.48;;
61702;SDS011;47622;47.726;3.298;2024-01-15T00:28:41;68.97;;;21.60;;
61702;SDS011;47622;47.726;3.298;2024-01-15T00:31:07;77.10;;;21.63;;
61702;SDS011;47622;47.726;3.298;2024-01-15T00:33:32;66.75;;;22.42;;
61702;SDS011;47622;47.726;3.298;2024-01-15T00:35:58;73.07;;;22.13;;
61702;SDS011;47622;47.726;3.298;2024-01-15T00:38:24;74.63;;;21.80;;
61702;SDS011;47622;47.726;3.298;2024-01-15T00:40:50;66.93;;;20.58;;
61702;SDS011;47622;47.726;3.298;2024-01-15T00:43:15;72.43;;;21.77;;
61702;SDS011;47622;47.726;3.298;2024-01-15T00:45:43;69.65;;;20.05;;
61702;SDS011;47622;47.726;3.298;2024-01-15T00:48:09;66.22;;;21.15;;
61702;SDS011;47622;47.726;3.298;2024-01-15T00:50:34;62.15;;;20.02;;
61702;SDS011;47622;47.726;3.298;2024-01-15T00:53:00;70.43;;;22.52;;
61702;SDS011;47622;47.726;3.298;2024-01-15T00:55:27;66.97;;;21.50;;
61702;SDS011;47622;47.726;3.298;2024-01-15T00:57:53;80.63;;;21.95;;
61702;SDS011;47622;47.726;3.298;2024-01-15T01:00:18;69.45;;;22.15;;
61702;SDS011;47622;47.726;3.298;2024-01-15T01:02:44;67.07;;;20.90;;
61702;SDS011;47622;47.726;3.298;2024-01-15T01:05:09;76.47;;;22.73;;
61702;SDS011;47622;47.726;3.298;2024-01-15T01:07:35;76.60;;;23.27;;
61702;SDS011;47622;47.726;3.298;2024-01-15T01:10:00;64.60;;;20.63;;
61702;SDS011;47622;47.726;3.298;2024-01-15T01:12:26;72.15;;;22.20;;
61702;SDS011;47622;47.726;3.298;2024-01-15T01:14:54;71.40;;;21.13;;
61702;SDS011;47622;47.726;3.298;2024-01-15T01:17:20;74.82;;;24.27;;
61702;SDS011;47622;47.726;3.298;2024-01-15T01:19:46;77.47;;;23.45;;
61702;SDS011;47622;47.726;3.298;2024-01-15T01:22:11;75.28;;;22.65;;
61702;SDS011;47622;47.726;3.298;2024-01-15T01:24:37;71.68;;;21.17;;
61702;SDS011;47622;47.726;3.298;2024-01-15T01:27:02;76.78;;;22.45;;
61702;SDS011;47622;47.726;3.298;2024-01-15T01:29:28;75.90;;;21.60;;
61702;SDS011;47622;47.726;3.298;2024-01-15T01:31:55;78.70;;;22.00;;
61702;SDS011;47622;47.726;3.298;2024-01-15T01:34:21;79.32;;;22.52;;
61702;SDS011;47622;47.726;3.298;2024-01-15T01:36:47;82.70;;;23.20;;
61702;SDS011;47622;47.726;3.298;2024-01-15T01:39:13;68.28;;;21.95;;
61702;SDS011;47622;47.726;3.298;2024-01-15T01:41:39;76.63;;;20.52;;
61702;SDS011;47622;47.726;3.298;2024-01-15T01:44:05;82.75;;;23.60;;
61702;SDS011;47622;47.726;3.298;2024-01-15T01:46:30;72.22;;;21.40;;
61702;SDS011;47622;47.726;3.298;2024-01-15T01:48:57;79.82;;;21.85;;
61702;SDS011;47622;47.726;3.298;2024-01-15T01:51:23;87.90;;;23.60;;
61702;SDS011;47622;47.726;3.298;2024-01-15T01:53:50;67.97;;;20.35;;
61702;SDS011;47622;47.726;3.298;2024-01-15T01:56:16;71.88;;;21.60;;
61702;SDS011;47622;47.726;3.298;2024-01-15T01:58:43;74.22;;;20.25;;
61702;SDS011;47622;47.726;3.298;2024-01-15T02:01:10;73.38;;;21.33;;
61702;SDS011;47622;47.726;3.298;2024-01-15T02:03:37;72.78;;;22.13;;
61702;SDS011;47622;47.726;3.298;2024-01-15T02:06:04;81.30;;;23.60;;
61702;SDS011;47622;47.726;3.298;2024-01-15T02:08:30;77.00;;;21.58;;
61702;SDS011;47622;47.726;3.298;2024-01-15T02:10:56;78.88;;;22.42;;
61702;SDS011;47622;47.726;3.298;2024-01-15T02:13:22;80.05;;;22.00;;
61702;SDS011;47622;47.726;3.298;2024-01-15T02:15:47;76.93;;;23.38;;
61702;SDS011;47622;47.726;3.298;2024-01-15T02:18:13;77.60;;;22.70;;
61702;SDS011;47622;47.726;3.298;2024-01-15T02:20:38;78.85;;;23.08;;
61702;SDS011;47622;47.726;3.298;2024-01-15T02:23:08;82.88;;;23.80;;
61702;SDS011;47622;47.726;3.298;2024-01-15T02:25:44;75.03;;;20.85;;
61702;SDS011;47622;47.726;3.298;2024-01-15T02:28:13;80.57;;;21.02;;
61702;SDS011;47622;47.726;3.298;2024-01-15T02:30:41;79.15;;;22.67;;
61702;SDS011;47622;47.726;3.298;2024-01-15T02:33:08;77.60;;;23.35;;
61702;SDS011;47622;47.726;3.298;2024-01-15T02:35:35;75.65;;;22.45;;
61702;SDS011;47622;47.726;3.298;2024-01-15T02:38:04;81.50;;;22.95;;
61702;SDS011;47622;47.726;3.298;2024-01-15T02:40:30;78.47;;;22.95;;
61702;SDS011;47622;47.726;3.298;2024-01-15T02:42:55;88.13;;;23.55;;
61702;SDS011;47622;47.726;3.298;2024-01-15T02:45:21;79.47;;;21.77;;
61702;SDS011;47622;47.726;3.298;2024-01-15T02:47:48;78.68;;;22.42;;
61702;SDS011;47622;47.726;3.298;2024-01-15T02:50:14;76.63;;;24.95;;
61702;SDS011;47622;47.726;3.298;2024-01-15T02:52:41;79.68;;;23.38;;
61702;SDS011;47622;47.726;3.298;2024-01-15T02:55:07;73.80;;;20.88;;
61702;SDS011;47622;47.726;3.298;2024-01-15T02:57:33;82.10;;;23.20;;
61702;SDS011;47622;47.726;3.298;2024-01-15T02:59:59;75.40;;;21.42;;
61702;SDS011;47622;47.726;3.298;2024-01-15T03:02:24;77.15;;;21.08;;
61702;SDS011;47622;47.726;3.298;2024-01-15T03:04:50;85.90;;;23.70;;
61702;SDS011;47622;47.726;3.298;2024-01-15T03:07:15;65.15;;;20.13;;
61702;SDS011;47622;47.726;3.298;2024-01-15T03:09:41;74.13;;;21.15;;
61702;SDS011;47622;47.726;3.298;2024-01-15T03:12:07;69.20;;;21.95;;
61702;SDS011;47622;47.726;3.298;2024-01-15T03:14:33;69.95;;;19.30;;
61702;SDS011;47622;47.726;3.298;2024-01-15T03:16:58;76.80;;;21.63;;
61702;SDS011;47622;47.726;3.298;2024-01-15T03:19:25;71.53;;;22.02;;
61702;SDS011;47622;47.726;3.298;2024-01-15T03:21:51;71.40;;;19.83;;
61702;SDS011;47622;47.726;3.298;2024-01-15T03:24:17;88.50;;;21.85;;
61702;SDS011;47622;47.726;3.298;2024-01-15T03:26:42;74.10;;;21.13;;
61702;SDS011;47622;47.726;3.298;2024-01-15T03:29:08;78.40;;;20.75;;
61702;SDS011;47622;47.726;3.298;2024-01-15T03:31:34;72.13;;;20.02;;
61702;SDS011;47622;47.726;3.298;2024-01-15T03:33:59;79.28;;;21.45;;
61702;SDS011;47622;47.726;3.298;2024-01-15T03:36:25;72.68;;;21.23;;
61702;SDS011;47622;47.726;3.298;2024-01-15T03:38:50;76.65;;;20.98;;
61702;SDS011;47622;47.726;3.298;2024-01-15T03:41:16;84.43;;;22.60;;
61702;SDS011;47622;47.726;3.298;2024-01-15T03:43:42;66.80;;;21.17;;
61702;SDS011;47622;47.726;3.298;2024-01-15T03:46:07;76.75;;;21.67;;
61702;SDS011;47622;47.726;3.298;2024-01-15T03:48:33;78.97;;;21.08;;
61702;SDS011;47622;47.726;3.298;2024-01-15T03:50:58;80.18;;;23.63;;
61702;SDS011;47622;47.726;3.298;2024-01-15T03:53:24;83.15;;;22.85;;
61702;SDS011;47622;47.726;3.298;2024-01-15T03:55:49;81.03;;;21.45;;
61702;SDS011;47622;47.726;3.298;2024-01-15T03:58:17;78.20;;;20.38;;
61702;SDS011;47622;47.726;3.298;2024-01-15T04:00:43;72.22;;;21.70;;
61702;SDS011;47622;47.726;3.298;2024-01-15T04:03:09;78.75;;;21.48;;
61702;SDS011;47622;47.726;3.298;2024-01-15T04:05:34;80.32;;;21.98;;
61702;SDS011;47622;47.726;3.298;2024-01-15T04:08:00;75.90;;;20.17;;
61702;SDS011;47622;47.726;3.298;2024-01-15T04:10:25;69.97;;;22.23;;
61702;SDS011;47622;47.726;3.298;2024-01-15T04:12:51;76.15;;;21.02;;
61702;SDS011;47622;47.726;3.298;2024-01-15T04:15:17;68.43;;;19.88;;
61702;SDS011;47622;47.726;3.298;2024-01-15T04:17:43;73.72;;;22.30;;
61702;SDS011;47622;47.726;3.298;2024-01-15T04:20:08;72.55;;;20.55;;
61702;SDS011;47622;47.726;3.298;2024-01-15T04:22:35;84.90;;;21.13;;
61702;SDS011;47622;47.726;3.298;2024-01-15T04:25:01;66.90;;;21.15;;
61702;SDS011;47622;47.726;3.298;2024-01-15T04:27:26;78.07;;;21.70;;
61702;SDS011;47622;47.726;3.298;2024-01-15T04:29:52;61.45;;;19.67;;
61702;SDS011;47622;47.726;3.298;2024-01-15T04:32:18;67.65;;;20.92;;
61702;SDS011;47622;47.726;3.298;2024-01-15T04:34:43;78.13;;;22.23;;
61702;SDS011;47622;47.726;3.298;2024-01-15T04:37:09;75.35;;;21.63;;
61702;SDS011;47622;47.726;3.298;2024-01-15T04:39:35;77.32;;;22.50;;
61702;SDS011;47622;47.726;3.298;2024-01-15T04:42:00;73.45;;;22.08;;
61702;SDS011;47622;47.726;3.298;2024-01-15T04:44:26;65.50;;;21.38;;
61702;SDS011;47622;47.726;3.298;2024-01-15T04:46:51;85.95;;;21.40;;
61702;SDS011;47622;47.726;3.298;2024-01-15T04:49:17;76.63;;;21.40;;
61702;SDS011;47622;47.726;3.298;2024-01-15T04:51:43;70.30;;;22.00;;
61702;SDS011;47622;47.726;3.298;2024-01-15T04:54:09;80.55;;;22.98;;
61702;SDS011;47622;47.726;3.298;2024-01-15T04:56:34;66.72;;;19.50;;
61702;SDS011;47622;47.726;3.298;2024-01-15T04:59:00;79.18;;;21.13;;
61702;SDS011;47622;47.726;3.298;2024-01-15T05:01:28;63.13;;;21.98;;
61702;SDS011;47622;47.726;3.298;2024-01-15T05:03:56;75.13;;;22.98;;
61702;SDS011;47622;47.726;3.298;2024-01-15T05:06:21;79.97;;;21.85;;
61702;SDS011;47622;47.726;3.298;2024-01-15T05:08:47;76.38;;;21.23;;
61702;SDS011;47622;47.726;3.298;2024-01-15T05:11:12;76.22;;;21.10;;
61702;SDS011;47622;47.726;3.298;2024-01-15T05:13:38;76.90;;;21.80;;
61702;SDS011;47622;47.726;3.298;2024-01-15T05:16:03;73.93;;;21.10;;
61702;SDS011;47622;47.726;3.298;2024-01-15T05:18:29;73.22;;;21.52;;
61702;SDS011;47622;47.726;3.298;2024-01-15T05:20:55;71.82;;;21.40;;
61702;SDS011;47622;47.726;3.298;2024-01-15T05:23:20;79.32;;;21.88;;
61702;SDS011;47622;47.726;3.298;2024-01-15T05:25:46;74.40;;;21.63;;
61702;SDS011;47622;47.726;3.298;2024-01-15T05:28:11;83.68;;;23.35;;
61702;SDS011;47622;47.726;3.298;2024-01-15T05:30:37;66.82;;;19.08;;
61702;SDS011;47622;47.726;3.298;2024-01-15T05:33:02;63.40;;;19.77;;
61702;SDS011;47622;47.726;3.298;2024-01-15T05:35:28;69.28;;;19.13;;
61702;SDS011;47622;47.726;3.298;2024-01-15T05:37:54;67.18;;;20.52;;
61702;SDS011;47622;47.726;3.298;2024-01-15T05:40:20;59.70;;;18.67;;
61702;SDS011;47622;47.726;3.298;2024-01-15T05:42:45;68.93;;;20.33;;
61702;SDS011;47622;47.726;3.298;2024-01-15T05:45:11;62.65;;;19.15;;
61702;SDS011;47622;47.726;3.298;2024-01-15T05:47:36;54.65;;;18.85;;
61702;SDS011;47622;47.726;3.298;2024-01-15T05:50:02;67.15;;;18.58;;
61702;SDS011;47622;47.726;3.298;2024-01-15T05:52:28;60.33;;;19.05;;
61702;SDS011;47622;47.726;3.298;2024-01-15T05:54:53;64.78;;;20.30;;
61702;SDS011;47622;47.726;3.298;2024-01-15T05:57:18;60.47;;;19.23;;
61702;SDS011;47622;47.726;3.298;2024-01-15T05:59:44;64.97;;;19.25;;
61702;SDS011;47622;47.726;3.298;2024-01-15T06:02:10;71.53;;;20.25;;
61702;SDS011;47622;47.726;3.298;2024-01-15T06:04:36;61.67;;;18.52;;
61702;SDS011;47622;47.726;3.298;2024-01-15T06:07:02;70.75;;;20.40;;
61702;SDS011;47622;47.726;3.298;2024-01-15T06:09:27;86.03;;;19.10;;
61702;SDS011;47622;47.726;3.298;2024-01-15T06:11:53;69.95;;;20.60;;
61702;SDS011;47622;47.726;3.298;2024-01-15T06:14:20;64.00;;;21.42;;
61702;SDS011;47622;47.726;3.298;2024-01-15T06:16:46;63.30;;;17.95;;
61702;SDS011;47622;47.726;3.298;2024-01-15T06:19:11;58.50;;;19.52;;
61702;SDS011;47622;47.726;3.298;2024-01-15T06:21:37;66.65;;;19.80;;
61702;SDS011;47622;47.726;3.298;2024-01-15T06:24:02;58.22;;;16.70;;
61702;SDS011;47622;47.726;3.298;2024-01-15T06:26:28;64.25;;;18.45;;
61702;SDS011;47622;47.726;3.298;2024-01-15T06:28:53;69.03;;;19.02;;
61702;SDS011;47622;47.726;3.298;2024-01-15T06:31:19;73.90;;;20.48;;
61702;SDS011;47622;47.726;3.298;2024-01-15T06:33:44;74.00;;;18.88;;
61702;SDS011;47622;47.726;3.298;2024-01-15T06:36:12;72.97;;;22.08;;
61702;SDS011;47622;47.726;3.298;2024-01-15T06:38:38;68.93;;;19.10;;
61702;SDS011;47622;47.726;3.298;2024-01-15T06:41:03;65.88;;;20.58;;
61702;SDS011;47622;47.726;3.298;2024-01-15T06:43:30;71.20;;;18.90;;
61702;SDS011;47622;47.726;3.298;2024-01-15T06:45:56;59.35;;;18.05;;
61702;SDS011;47622;47.726;3.298;2024-01-15T06:48:21;58.33;;;17.98;;
61702;SDS011;47622;47.726;3.298;2024-01-15T06:50:47;53.08;;;17.17;;
61702;SDS011;47622;47.726;3.298;2024-01-15T06:53:12;60.58;;;17.95;;
61702;SDS011;47622;47.726;3.298;2024-01-15T06:55:38;64.22;;;18.48;;
61702;SDS011;47622;47.726;3.298;2024-01-15T06:58:04;54.92;;;18.27;;
61702;SDS011;47622;47.726;3.298;2024-01-15T07:00:30;64.35;;;19.77;;
61702;SDS011;47622;47.726;3.298;2024-01-15T07:02:56;63.00;;;19.95;;
61702;SDS011;47622;47.726;3.298;2024-01-15T07:05:22;66.25;;;18.60;;
61702;SDS011;47622;47.726;3.298;2024-01-15T07:07:47;65.45;;;19.15;;
61702;SDS011;47622;47.726;3.298;2024-01-15T07:10:13;59.35;;;18.48;;
61702;SDS011;47622;47.726;3.298;2024-01-15T07:12:38;59.45;;;18.45;;
61702;SDS011;47622;47.726;3.298;2024-01-15T07:15:06;59.22;;;16.48;;
61702;SDS011;47622;47.726;3.298;2024-01-15T07:17:33;57.80;;;19.02;;
61702;SDS011;47622;47.726;3.298;2024-01-15T07:19:59;67.70;;;19.20;;
61702;SDS011;47622;47.726;3.298;2024-01-15T07:22:24;69.03;;;19.60;;
61702;SDS011;47622;47.726;3.298;2024-01-15T07:24:50;53.75;;;18.40;;
61702;SDS011;47622;47.726;3.298;2024-01-15T07:27:15;63.20;;;19.70;;
61702;SDS011;47622;47.726;3.298;2024-01-15T07:29:41;63.10;;;18.08;;
61702;SDS011;47622;47.726;3.298;2024-01-15T07:32:08;63.70;;;18.67;;
61702;SDS011;47622;47.726;3.298;2024-01-15T07:34:34;56.70;;;17.38;;
61702;SDS011;47622;47.726;3.298;2024-01-15T07:36:59;53.53;;;16.38;;
61702;SDS011;47622;47.726;3.298;2024-01-15T07:39:25;54.17;;;16.55;;
61702;SDS011;47622;47.726;3.298;2024-01-15T07:41:53;61.10;;;18.25;;
61702;SDS011;47622;47.726;3.298;2024-01-15T07:44:19;55.28;;;17.38;;
61702;SDS011;47622;47.726;3.298;2024-01-15T07:46:45;58.20;;;19.23;;
61702;SDS011;47622;47.726;3.298;2024-01-15T07:49:14;61.25;;;18.90;;
61702;SDS011;47622;47.726;3.298;2024-01-15T07:51:39;53.47;;;17.48;;
61702;SDS011;47622;47.726;3.298;2024-01-15T07:54:06;57.17;;;19.08;;
61702;SDS011;47622;47.726;3.298;2024-01-15T07:56:32;52.50;;;18.38;;
61702;SDS011;47622;47.726;3.298;2024-01-15T07:58:58;60.75;;;19.60;;
61702;SDS011;47622;47.726;3.298;2024-01-15T08:01:24;59.10;;;19.08;;
61702;SDS011;47622;47.726;3.298;2024-01-15T08:03:49;54.63;;;18.00;;
61702;SDS011;47622;47.726;3.298;2024-01-15T08:06:15;64.40;;;19.73;;
61702;SDS011;47622;47.726;3.298;2024-01-15T08:08:40;66.28;;;18.83;;
61702;SDS011;47622;47.726;3.298;2024-01-15T08:11:06;56.72;;;18.73;;
61702;SDS011;47622;47.726;3.298;2024-01-15T08:13:32;55.75;;;18.48;;
61702;SDS011;47622;47.726;3.298;2024-01-15T08:15:57;57.28;;;18.25;;
61702;SDS011;47622;47.726;3.298;2024-01-15T08:18:23;50.15;;;17.80;;
61702;SDS011;47622;47.726;3.298;2024-01-15T08:20:50;63.35;;;19.35;;
61702;SDS011;47622;47.726;3.298;2024-01-15T08:23:16;65.82;;;19.60;;
61702;SDS011;47622;47.726;3.298;2024-01-15T08:25:42;57.30;;;18.75;;
61702;SDS011;47622;47.726;3.298;2024-01-15T08:28:07;65.40;;;19.98;;
61702;SDS011;47622;47.726;3.298;2024-01-15T08:30:33;61.67;;;20.10;;
61702;SDS011;47622;47.726;3.298;2024-01-15T08:32:59;58.40;;;20.10;;
61702;SDS011;47622;47.726;3.298;2024-01-15T08:35:25;55.45;;;21.50;;
61702;SDS011;47622;47.726;3.298;2024-01-15T08:37:54;58.40;;;18.77;;
61702;SDS011;47622;47.726;3.298;2024-01-15T08:40:20;59.08;;;20.58;;
61702;SDS011;47622;47.726;3.298;2024-01-15T08:42:45;54.70;;;19.02;;
61702;SDS011;47622;47.726;3.298;2024-01-15T08:45:11;56.55;;;19.17;;
61702;SDS011;47622;47.726;3.298;2024-01-15T08:47:37;57.75;;;20.63;;
61702;SDS011;47622;47.726;3.298;2024-01-15T08:50:03;59.58;;;20.75;;
61702;SDS011;47622;47.726;3.298;2024-01-15T08:52:29;65.10;;;20.48;;
61702;SDS011;47622;47.726;3.298;2024-01-15T08:54:56;56.58;;;20.58;;
61702;SDS011;47622;47.726;3.298;2024-01-15T08:57:22;53.85;;;19.00;;
61702;SDS011;47622;47.726;3.298;2024-01-15T08:59:47;57.33;;;20.05;;
61702;SDS011;47622;47.726;3.298;2024-01-15T09:02:13;55.83;;;19.65;;
61702;SDS011;47622;47.726;3.298;2024-01-15T09:04:39;64.82;;;20.38;;
61702;SDS011;47622;47.726;3.298;2024-01-15T09:07:04;60.22;;;20.08;;
61702;SDS011;47622;47.726;3.298;2024-01-15T09:09:30;52.10;;;19.83;;
61702;SDS011;47622;47.726;3.298;2024-01-15T09:11:55;60.55;;;20.58;;
61702;SDS011;47622;47.726;3.298;2024-01-15T09:14:21;51.22;;;20.17;;
61702;SDS011;47622;47.726;3.298;2024-01-15T09:16:49;59.35;;;19.70;;
61702;SDS011;47622;47.726;3.298;2024-01-15T09:19:15;56.75;;;19.50;;
61702;SDS011;47622;47.726;3.298;2024-01-15T09:21:40;58.85;;;18.38;;
61702;SDS011;47622;47.726;3.298;2024-01-15T09:24:06;54.35;;;18.80;;
61702;SDS011;47622;47.726;3.298;2024-01-15T09:26:32;53.70;;;19.70;;
61702;SDS011;47622;47.726;3.298;2024-01-15T09:28:59;53.17;;;20.02;;
61702;SDS011;47622;47.726;3.298;2024-01-15T09:31:26;57.17;;;19.42;;
61702;SDS011;47622;47.726;3.298;2024-01-15T09:33:52;55.50;;;19.45;;
61702;SDS011;47622;47.726;3.298;2024-01-15T09:36:21;61.72;;;20.23;;
61702;SDS011;47622;47.726;3.298;2024-01-15T09:38:48;53.85;;;20.50;;
61702;SDS011;47622;47.726;3.298;2024-01-15T09:41:14;58.28;;;21.92;;
61702;SDS011;47622;47.726;3.298;2024-01-15T09:43:40;50.30;;;19.60;;
61702;SDS011;47622;47.726;3.298;2024-01-15T09:46:06;53.35;;;19.40;;
61702;SDS011;47622;47.726;3.298;2024-01-15T09:48:32;56.10;;;20.27;;
61702;SDS011;47622;47.726;3.298;2024-01-15T09:51:01;50.75;;;19.48;;
61702;SDS011;47622;47.726;3.298;2024-01-15T09:53:27;50.25;;;18.50;;
61702;SDS011;47622;47.726;3.298;2024-01-15T09:55:53;50.13;;;18.65;;
61702;SDS011;47622;47.726;3.298;2024-01-15T09:58:19;56.72;;;20.25;;
61702;SDS011;47622;47.726;3.298;2024-01-15T10:00:47;49.25;;;17.48;;
61702;SDS011;47622;47.726;3.298;2024-01-15T10:03:15;49.85;;;19.08;;
61702;SDS011;47622;47.726;3.298;2024-01-15T10:05:40;43.20;;;17.42;;
61702;SDS011;47622;47.726;3.298;2024-01-15T10:08:06;48.25;;;17.58;;
61702;SDS011;47622;47.726;3.298;2024-01-15T10:10:32;42.15;;;16.83;;
61702;SDS011;47622;47.726;3.298;2024-01-15T10:12:58;38.33;;;15.43;;
61702;SDS011;47622;47.726;3.298;2024-01-15T10:15:27;45.03;;;16.73;;
61702;SDS011;47622;47.726;3.298;2024-01-15T10:17:53;45.35;;;16.30;;
61702;SDS011;47622;47.726;3.298;2024-01-15T10:20:20;39.33;;;16.05;;
61702;SDS011;47622;47.726;3.298;2024-01-15T10:22:49;40.85;;;16.35;;
61702;SDS011;47622;47.726;3.298;2024-01-15T10:25:15;41.22;;;16.92;;
61702;SDS011;47622;47.726;3.298;2024-01-15T10:27:41;37.90;;;15.60;;
61702;SDS011;47622;47.726;3.298;2024-01-15T10:30:08;39.92;;;15.88;;
61702;SDS011;47622;47.726;3.298;2024-01-15T10:32:34;39.78;;;17.00;;
61702;SDS011;47622;47.726;3.298;2024-01-15T10:34:59;38.17;;;15.88;;
61702;SDS011;47622;47.726;3.298;2024-01-15T10:37:25;35.95;;;15.55;;
61702;SDS011;47622;47.726;3.298;2024-01-15T10:39:52;38.83;;;16.42;;
61702;SDS011;47622;47.726;3.298;2024-01-15T10:42:17;37.08;;;15.30;;
61702;SDS011;47622;47.726;3.298;2024-01-15T10:44:43;32.78;;;14.88;;
61702;SDS011;47622;47.726;3.298;2024-01-15T10:47:09;35.97;;;15.98;;
61702;SDS011;47622;47.726;3.298;2024-01-15T10:49:36;34.08;;;14.10;;
61702;SDS011;47622;47.726;3.298;2024-01-15T10:52:02;32.55;;;14.80;;
61702;SDS011;47622;47.726;3.298;2024-01-15T10:54:29;28.75;;;13.50;;
61702;SDS011;47622;47.726;3.298;2024-01-15T10:56:55;32.03;;;14.13;;
61702;SDS011;47622;47.726;3.298;2024-01-15T10:59:21;34.25;;;14.05;;
61702;SDS011;47622;47.726;3.298;2024-01-15T11:01:50;32.88;;;14.75;;
61702;SDS011;47622;47.726;3.298;2024-01-15T11:04:19;31.85;;;14.43;;
61702;SDS011;47622;47.726;3.298;2024-01-15T11:06:47;31.80;;;15.25;;
61702;SDS011;47622;47.726;3.298;2024-01-15T11:09:15;38.13;;;15.48;;
61702;SDS011;47622;47.726;3.298;2024-01-15T11:11:46;33.17;;;14.50;;
61702;SDS011;47622;47.726;3.298;2024-01-15T11:17:00;40.85;;;15.50;;
61702;SDS011;47622;47.726;3.298;2024-01-15T11:19:27;40.03;;;15.75;;
61702;SDS011;47622;47.726;3.298;2024-01-15T11:22:08;34.15;;;14.63;;
61702;SDS011;47622;47.726;3.298;2024-01-15T11:27:07;37.50;;;16.40;;
61702;SDS011;47622;47.726;3.298;2024-01-15T11:29:34;34.30;;;14.02;;
61702;SDS011;47622;47.726;3.298;2024-01-15T11:32:06;34.95;;;15.35;;
61702;SDS011;47622;47.726;3.298;2024-01-15T11:37:28;33.38;;;15.25;;
61702;SDS011;47622;47.726;3.298;2024-01-15T11:40:14;40.08;;;15.02;;
61702;SDS011;47622;47.726;3.298;2024-01-15T11:42:44;36.45;;;15.95;;
61702;SDS011;47622;47.726;3.298;2024-01-15T11:45:10;32.28;;;13.82;;
61702;SDS011;47622;47.726;3.298;2024-01-15T11:50:21;38.70;;;16.35;;
61702;SDS011;47622;47.726;3.298;2024-01-15T11:52:51;41.33;;;17.70;;
61702;SDS011;47622;47.726;3.298;2024-01-15T11:55:33;38.15;;;15.93;;
61702;SDS011;47622;47.726;3.298;2024-01-15T11:58:02;40.60;;;17.13;;
61702;SDS011;47622;47.726;3.298;2024-01-15T12:00:30;41.30;;;16.23;;
61702;SDS011;47622;47.726;3.298;2024-01-15T12:02:58;35.67;;;15.27;;
61702;SDS011;47622;47.726;3.298;2024-01-15T12:05:23;42.88;;;16.95;;
61702;SDS011;47622;47.726;3.298;2024-01-15T12:07:49;41.22;;;17.02;;
61702;SDS011;47622;47.726;3.298;2024-01-15T12:10:19;40.42;;;15.00;;
61702;SDS011;47622;47.726;3.298;2024-01-15T12:13:05;42.85;;;16.48;;
61702;SDS011;47622;47.726;3.298;2024-01-15T12:15:35;40.15;;;16.00;;
61702;SDS011;47622;47.726;3.298;2024-01-15T12:18:01;39.92;;;16.50;;
61702;SDS011;47622;47.726;3.298;2024-01-15T12:20:28;39.50;;;16.05;;
61702;SDS011;47622;47.726;3.298;2024-01-15T12:22:54;38.92;;;16.15;;
61702;SDS011;47622;47.726;3.298;2024-01-15T12:25:21;35.53;;;14.40;;
61702;SDS011;47622;47.726;3.298;2024-01-15T12:27:48;37.33;;;15.35;;
61702;SDS011;47622;47.726;3.298;2024-01-15T12:30:14;38.78;;;15.52;;
61702;SDS011;47622;47.726;3.298;2024-01-15T12:32:43;31.13;;;15.10;;
61702;SDS011;47622;47.726;3.298;2024-01-15T12:35:13;34.33;;;14.82;;
61702;SDS011;47622;47.726;3.298;2024-01-15T12:37:40;35.15;;;16.38;;
61702;SDS011;47622;47.726;3.298;2024-01-15T12:40:06;33.58;;;15.50;;
61702;SDS011;47622;47.726;3.298;2024-01-15T12:42:34;32.75;;;14.60;;
61702;SDS011;47622;47.726;3.298;2024-01-15T12:45:08;35.47;;;15.60;;
61702;SDS011;47622;47.726;3.298;2024-01-15T12:47:35;31.48;;;14.43;;
61702;SDS011;47622;47.726;3.298;2024-01-15T12:50:01;30.80;;;14.15;;
61702;SDS011;47622;47.726;3.298;2024-01-15T12:52:27;35.13;;;15.25;;
61702;SDS011;47622;47.726;3.298;2024-01-15T12:54:54;34.13;;;15.40;;
61702;SDS011;47622;47.726;3.298;2024-01-15T12:57:19;38.85;;;16.80;;
61702;SDS011;47622;47.726;3.298;2024-01-15T12:59:45;30.00;;;14.07;;
61702;SDS011;47622;47.726;3.298;2024-01-15T13:02:12;32.95;;;15.32;;
61702;SDS011;47622;47.726;3.298;2024-01-15T13:04:38;39.78;;;15.15;;
61702;SDS011;47622;47.726;3.298;2024-01-15T13:07:05;31.27;;;13.60;;
61702;SDS011;47622;47.726;3.298;2024-01-15T13:09:32;37.70;;;15.45;;
61702;SDS011;47622;47.726;3.298;2024-01-15T13:11:58;35.70;;;15.50;;
61702;SDS011;47622;47.726;3.298;2024-01-15T13:14:24;35.05;;;14.40;;
61702;SDS011;47622;47.726;3.298;2024-01-15T13:16:50;34.35;;;15.48;;
61702;SDS011;47622;47.726;3.298;2024-01-15T13:19:16;33.97;;;14.68;;
61702;SDS011;47622;47.726;3.298;2024-01-15T13:21:42;31.25;;;13.50;;
61702;SDS011;47622;47.726;3.298;2024-01-15T13:24:07;35.03;;;14.45;;
61702;SDS011;47622;47.726;3.298;2024-01-15T13:26:34;35.00;;;15.80;;
61702;SDS011;47622;47.726;3.298;2024-01-15T13:29:00;30.17;;;13.57;;
61702;SDS011;47622;47.726;3.298;2024-01-15T13:31:26;34.25;;;14.82;;
61702;SDS011;47622;47.726;3.298;2024-01-15T13:33:53;39.15;;;15.05;;
61702;SDS011;47622;47.726;3.298;2024-01-15T13:36:18;32.88;;;14.95;;
61702;SDS011;47622;47.726;3.298;2024-01-15T13:38:46;30.27;;;13.52;;
61702;SDS011;47622;47.726;3.298;2024-01-15T13:41:12;33.25;;;14.70;;
61702;SDS011;47622;47.726;3.298;2024-01-15T13:43:37;33.75;;;15.23;;
61702;SDS011;47622;47.726;3.298;2024-01-15T13:46:03;33.35;;;14.50;;
61702;SDS011;47622;47.726;3.298;2024-01-15T13:48:30;31.85;;;14.63;;
61702;SDS011;47622;47.726;3.298;2024-01-15T13:50:57;32.03;;;13.98;;
61702;SDS011;47622;47.726;3.298;2024-01-15T13:53:23;30.20;;;14.02;;
61702;SDS011;47622;47.726;3.298;2024-01-15T13:55:48;31.13;;;14.32;;
61702;SDS011;47622;47.726;3.298;2024-01-15T13:58:14;33.13;;;13.95;;
61702;SDS011;47622;47.726;3.298;2024-01-15T14:00:39;33.47;;;14.63;;
61702;SDS011;47622;47.726;3.298;2024-01-15T14:03:05;33.10;;;14.15;;
61702;SDS011;47622;47.726;3.298;2024-01-15T14:05:30;30.35;;;13.27;;
61702;SDS011;47622;47.726;3.298;2024-01-15T14:07:56;30.15;;;13.77;;
61702;SDS011;47622;47.726;3.298;2024-01-15T14:10:22;31.77;;;14.10;;
61702;SDS011;47622;47.726;3.298;2024-01-15T14:12:47;30.38;;;13.85;;
61702;SDS011;47622;47.726;3.298;2024-01-15T14:15:13;31.45;;;13.40;;
61702;SDS011;47622;47.726;3.298;2024-01-15T14:17:39;31.75;;;14.40;;
61702;SDS011;47622;47.726;3.298;2024-01-15T14:20:05;28.48;;;13.45;;
61702;SDS011;47622;47.726;3.298;2024-01-15T14:22:31;33.00;;;13.25;;
61702;SDS011;47622;47.726;3.298;2024-01-15T14:24:56;31.67;;;14.32;;
61702;SDS011;47622;47.726;3.298;2024-01-15T14:27:22;31.48;;;14.82;;